createdAt,value
2022-08-27T00:03:02.193Z,23.80
2022-08-27T00:07:05.204Z,23.80
2022-08-27T00:11:06.597Z,23.80
2022-08-27T00:15:09.327Z,23.80
2022-08-27T00:19:12.251Z,23.80
2022-08-27T00:23:13.579Z,23.60
2022-08-27T00:27:15.104Z,23.60
2022-08-27T00:31:17.050Z,23.60
2022-08-27T00:35:19.107Z,23.50
2022-08-27T00:39:20.992Z,23.60
2022-08-27T00:43:24.580Z,23.70
2022-08-27T00:47:28.941Z,23.70
2022-08-27T00:51:30.653Z,23.80
2022-08-27T00:55:36.266Z,23.80
2022-08-27T00:59:39.247Z,23.90
2022-08-27T01:03:44.496Z,24.10
2022-08-27T01:07:49.428Z,24.10
2022-08-27T01:11:51.592Z,24.00
2022-08-27T01:15:55.574Z,23.90
2022-08-27T01:19:59.167Z,23.70
2022-08-27T01:24:10.246Z,23.60
2022-08-27T01:28:13.197Z,23.60
2022-08-27T01:32:18.216Z,23.50
2022-08-27T01:36:19.488Z,23.70
2022-08-27T01:40:21.315Z,23.60
2022-08-27T01:44:22.548Z,23.70
2022-08-27T01:48:23.832Z,23.70
2022-08-27T01:52:27.884Z,23.60
2022-08-27T01:56:29.200Z,23.50
2022-08-27T02:00:34.262Z,23.60
2022-08-27T02:04:35.765Z,23.50
2022-08-27T02:08:38.112Z,23.70
2022-08-27T02:12:39.482Z,23.60
2022-08-27T02:16:46.300Z,23.80
2022-08-27T02:20:46.498Z,23.70
2022-08-27T02:24:47.974Z,23.60
2022-08-27T02:28:49.276Z,23.80
2022-08-27T02:32:52.391Z,23.80
2022-08-27T02:36:53.970Z,23.80
2022-08-27T02:40:55.423Z,23.60
2022-08-27T02:44:56.674Z,23.60
2022-08-27T02:48:57.971Z,23.60
2022-08-27T02:53:01.577Z,23.50
2022-08-27T02:57:03.014Z,23.60
2022-08-27T03:01:04.710Z,23.60
2022-08-27T03:05:07.997Z,23.60
2022-08-27T03:09:09.958Z,23.60
2022-08-27T03:13:11.258Z,23.60
2022-08-27T03:17:31.213Z,23.50
2022-08-27T03:21:34.587Z,23.40
2022-08-27T03:25:36.860Z,23.50
2022-08-27T03:29:38.219Z,23.40
2022-08-27T03:33:40.391Z,23.60
2022-08-27T03:37:42.527Z,23.60
2022-08-27T03:41:54.664Z,23.40
2022-08-27T03:45:48.496Z,23.40
2022-08-27T03:49:51.626Z,23.60
2022-08-27T03:53:53.391Z,23.50
2022-08-27T03:57:54.614Z,23.50
2022-08-27T04:01:56.694Z,23.60
2022-08-27T04:05:58.438Z,23.50
2022-08-27T04:09:59.748Z,23.40
2022-08-27T04:14:04.554Z,23.50
2022-08-27T04:18:07.727Z,23.40
2022-08-27T04:22:09.050Z,23.40
2022-08-27T04:26:11.510Z,23.20
2022-08-27T04:30:14.858Z,23.20
2022-08-27T04:34:17.059Z,23.10
2022-08-27T04:38:18.509Z,22.90
2022-08-27T04:42:20.728Z,22.90
2022-08-27T04:46:24.131Z,22.70
2022-08-27T04:50:25.564Z,22.70
2022-08-27T04:54:32.779Z,22.70
2022-08-27T04:58:30.358Z,22.90
2022-08-27T05:02:31.671Z,22.70
2022-08-27T05:06:34.152Z,22.60
2022-08-27T05:10:44.330Z,22.40
2022-08-27T05:14:45.636Z,22.30
2022-08-27T05:18:49.542Z,22.40
2022-08-27T05:22:50.963Z,22.40
2022-08-27T05:26:52.950Z,22.30
2022-08-27T05:30:58.108Z,22.20
2022-08-27T05:34:59.485Z,22.40
2022-08-27T05:39:03.157Z,22.70
2022-08-27T05:43:05.003Z,22.60
2022-08-27T05:47:06.388Z,22.60
2022-08-27T05:51:25.892Z,22.70
2022-08-27T05:55:24.203Z,22.70
2022-08-27T05:59:44.073Z,22.80
2022-08-27T06:03:45.963Z,22.80
2022-08-27T06:07:47.202Z,22.80
2022-08-27T06:11:48.709Z,22.90
2022-08-27T06:15:49.863Z,23.00
2022-08-27T06:19:51.244Z,22.90
2022-08-27T06:23:54.064Z,23.00
2022-08-27T06:27:55.273Z,23.10
2022-08-27T06:31:56.415Z,22.90
2022-08-27T06:35:59.618Z,22.80
2022-08-27T06:40:00.975Z,22.90
2022-08-27T06:44:02.554Z,23.20
2022-08-27T06:48:03.835Z,23.10
2022-08-27T06:52:05.130Z,23.30
2022-08-27T06:56:08.659Z,23.40
2022-08-27T07:00:11.657Z,23.40
2022-08-27T07:04:16.612Z,23.40
2022-08-27T07:08:18.319Z,23.40
2022-08-27T07:12:20.955Z,23.60
2022-08-27T07:16:25.484Z,23.40
2022-08-27T07:20:26.727Z,23.40
2022-08-27T07:24:27.988Z,23.20
2022-08-27T07:28:29.540Z,23.40
2022-08-27T07:32:31.695Z,23.40
2022-08-27T07:36:34.284Z,23.50
2022-08-27T07:40:35.633Z,23.50
2022-08-27T07:44:36.904Z,23.40
2022-08-27T07:48:38.082Z,23.60
2022-08-27T07:52:39.375Z,23.70
2022-08-27T07:56:41.136Z,24.00
2022-08-27T08:00:44.149Z,24.30
2022-08-27T08:04:45.638Z,24.60
2022-08-27T08:08:47.117Z,24.70
2022-08-27T08:12:49.493Z,24.70
2022-08-27T08:16:50.812Z,25.00
2022-08-27T08:20:58.585Z,25.20
2022-08-27T08:24:55.244Z,25.40
2022-08-27T08:28:56.666Z,25.70
2022-08-27T08:32:57.910Z,25.90
2022-08-27T08:37:01.317Z,25.90
2022-08-27T08:41:04.494Z,26.00
2022-08-27T08:45:07.008Z,26.00
2022-08-27T08:49:23.021Z,25.90
2022-08-27T08:53:34.072Z,25.80
2022-08-27T08:57:42.142Z,25.20
2022-08-27T09:01:44.766Z,25.30
2022-08-27T09:06:05.236Z,25.60
2022-08-27T09:10:19.683Z,26.00
2022-08-27T09:14:36.600Z,26.30
2022-08-27T09:18:39.989Z,26.70
2022-08-27T09:22:45.969Z,27.20
2022-08-27T09:26:47.225Z,27.10
2022-08-27T09:30:48.490Z,27.00
2022-08-27T09:34:51.496Z,26.60
2022-08-27T09:39:01.057Z,26.20
2022-08-27T09:43:08.782Z,26.10
2022-08-27T09:47:15.040Z,25.90
2022-08-27T09:51:21.903Z,25.80
2022-08-27T09:55:44.422Z,26.00
2022-08-27T09:59:53.927Z,25.80
2022-08-27T10:04:13.750Z,26.10
2022-08-27T10:08:34.238Z,26.40
2022-08-27T10:12:42.107Z,26.30
2022-08-27T10:17:04.194Z,26.50
2022-08-27T10:21:18.013Z,26.50
2022-08-27T10:25:24.046Z,26.70
2022-08-27T10:29:49.887Z,27.00
2022-08-27T10:34:01.297Z,27.20
2022-08-27T10:38:25.136Z,27.30
2022-08-27T10:42:39.387Z,27.60
2022-08-27T10:47:02.521Z,27.50
2022-08-27T10:51:07.855Z,27.30
2022-08-27T10:55:12.802Z,27.40
2022-08-27T10:59:39.184Z,27.40
2022-08-27T11:03:54.087Z,27.40
2022-08-27T11:08:02.666Z,28.10
2022-08-27T11:12:15.095Z,28.50
2022-08-27T11:16:22.342Z,28.50
2022-08-27T11:20:44.327Z,28.40
2022-08-27T11:24:49.357Z,28.30
2022-08-27T11:28:56.961Z,27.90
2022-08-27T11:33:14.402Z,27.90
2022-08-27T11:37:19.412Z,27.80
2022-08-27T11:41:45.219Z,28.00
2022-08-27T11:46:01.903Z,28.40
2022-08-27T11:50:08.157Z,28.50
2022-08-27T11:54:12.388Z,28.50
2022-08-27T11:58:21.227Z,28.40
2022-08-27T12:02:26.282Z,28.40
2022-08-27T12:06:29.001Z,28.00
2022-08-27T12:10:34.006Z,27.90
2022-08-27T12:14:52.946Z,27.90
2022-08-27T12:19:19.048Z,28.10
2022-08-27T12:23:43.716Z,27.90
2022-08-27T12:27:48.649Z,27.80
2022-08-27T12:31:53.690Z,27.60
2022-08-27T12:35:57.293Z,27.90
2022-08-27T12:40:03.157Z,28.10
2022-08-27T12:44:10.575Z,28.20
2022-08-27T12:48:12.131Z,28.10
2022-08-27T12:52:49.239Z,28.00
2022-08-27T12:57:12.153Z,28.00
2022-08-27T13:01:33.045Z,28.10
2022-08-27T13:05:41.634Z,28.00
2022-08-27T13:09:43.068Z,28.20
2022-08-27T13:13:45.083Z,28.20
2022-08-27T13:17:46.953Z,28.50
2022-08-27T13:21:50.285Z,28.80
2022-08-27T13:25:59.670Z,29.10
2022-08-27T13:30:10.409Z,29.10
2022-08-27T13:34:16.916Z,29.20
2022-08-27T13:38:20.641Z,28.90
2022-08-27T13:42:24.496Z,29.00
2022-08-27T13:46:29.119Z,28.90
2022-08-27T13:50:33.340Z,28.80
2022-08-27T13:54:35.043Z,28.20
2022-08-27T13:58:36.775Z,28.10
2022-08-27T14:02:38.579Z,27.80
2022-08-27T14:06:46.080Z,27.70
2022-08-27T14:10:51.703Z,27.60
2022-08-27T14:14:54.220Z,27.70
2022-08-27T14:19:10.991Z,27.80
2022-08-27T14:23:12.511Z,27.70
2022-08-27T14:27:15.730Z,27.30
2022-08-27T14:31:17.706Z,27.20
2022-08-27T14:35:24.851Z,27.40
2022-08-27T14:39:26.126Z,27.40
2022-08-27T14:43:25.855Z,27.40
2022-08-27T14:47:31.112Z,27.30
2022-08-27T14:51:31.933Z,27.40
2022-08-27T14:55:33.957Z,27.30
2022-08-27T14:59:36.395Z,27.30
2022-08-27T15:03:40.841Z,27.20
2022-08-27T15:07:47.166Z,27.10
2022-08-27T15:11:48.804Z,27.20
2022-08-27T15:15:50.031Z,27.30
2022-08-27T15:19:52.910Z,27.50
2022-08-27T15:23:57.826Z,27.70
2022-08-27T15:27:59.029Z,27.60
2022-08-27T15:32:00.268Z,27.50
2022-08-27T15:36:04.230Z,27.60
2022-08-27T15:40:06.808Z,27.50
2022-08-27T15:44:08.138Z,27.60
2022-08-27T15:48:10.160Z,27.50
2022-08-27T15:52:16.101Z,27.70
2022-08-27T15:56:16.743Z,27.60
2022-08-27T16:00:19.547Z,27.50
2022-08-27T16:04:22.198Z,27.20
2022-08-27T16:08:23.754Z,27.30
2022-08-27T16:12:27.501Z,27.00
2022-08-27T16:16:31.494Z,27.00
2022-08-27T16:20:33.423Z,27.10
2022-08-27T16:24:34.822Z,27.00
2022-08-27T16:28:35.968Z,27.00
2022-08-27T16:32:37.193Z,26.80
2022-08-27T16:36:38.596Z,26.60
2022-08-27T16:40:43.580Z,26.50
2022-08-27T16:44:45.071Z,26.40
2022-08-27T16:49:03.176Z,26.30
2022-08-27T16:53:08.331Z,26.20
2022-08-27T16:57:09.545Z,26.20
2022-08-27T17:01:12.505Z,26.30
2022-08-27T17:09:18.416Z,26.10
2022-08-27T17:13:28.318Z,25.90
2022-08-27T17:17:29.025Z,25.90
2022-08-27T17:21:31.314Z,25.80
2022-08-27T17:25:33.249Z,25.90
2022-08-27T17:29:35.942Z,26.10
2022-08-27T17:33:40.911Z,26.20
2022-08-27T17:37:42.229Z,26.10
2022-08-27T17:41:45.851Z,25.90
2022-08-27T17:45:48.142Z,25.90
2022-08-27T17:49:49.771Z,25.90
2022-08-27T17:53:57.042Z,25.90
2022-08-27T17:57:55.824Z,25.90
2022-08-27T18:01:57.237Z,26.10
2022-08-27T18:05:58.486Z,26.00
2022-08-27T18:09:59.716Z,26.00
2022-08-27T18:14:04.850Z,25.70
2022-08-27T18:18:07.830Z,25.50
2022-08-27T18:22:10.050Z,24.90
2022-08-27T18:26:14.060Z,24.70
2022-08-27T18:30:16.774Z,24.60
2022-08-27T18:34:20.872Z,24.50
2022-08-27T18:38:21.042Z,24.30
2022-08-27T18:42:22.265Z,24.10
2022-08-27T18:46:23.716Z,24.00
2022-08-27T18:50:25.899Z,24.00
2022-08-27T18:54:27.325Z,24.20
2022-08-27T18:58:28.559Z,24.20
2022-08-27T19:02:31.893Z,24.20
2022-08-27T19:06:33.117Z,24.30
2022-08-27T19:10:34.607Z,24.30
2022-08-27T19:14:36.319Z,24.30
2022-08-27T19:18:37.990Z,24.20
2022-08-27T19:22:39.193Z,24.20
2022-08-27T19:26:41.118Z,24.20
2022-08-27T19:30:42.653Z,24.10
2022-08-27T19:34:44.382Z,24.20
2022-08-27T19:38:47.704Z,24.00
2022-08-27T19:42:50.014Z,23.90
2022-08-27T19:46:52.524Z,23.80
2022-08-27T19:50:55.234Z,23.60
2022-08-27T19:55:13.148Z,23.50
2022-08-27T19:59:07.661Z,23.60
2022-08-27T20:03:03.075Z,23.30
2022-08-27T20:07:05.302Z,23.20
2022-08-27T20:11:06.441Z,23.30
2022-08-27T20:15:08.392Z,23.10
2022-08-27T20:19:13.308Z,23.10
2022-08-27T20:23:15.146Z,23.10
2022-08-27T20:27:16.311Z,23.10
2022-08-27T20:31:18.191Z,22.90
2022-08-27T20:35:20.390Z,22.70
2022-08-27T20:39:21.584Z,22.70
2022-08-27T20:43:22.928Z,22.90
2022-08-27T20:47:27.501Z,22.80
2022-08-27T20:51:28.736Z,22.90
2022-08-27T20:55:29.952Z,23.00
2022-08-27T20:59:49.600Z,23.10
2022-08-27T21:03:51.761Z,23.00
2022-08-27T21:07:53.183Z,23.10
2022-08-27T21:11:57.898Z,23.00
2022-08-27T21:15:59.091Z,23.00
2022-08-27T21:20:00.473Z,23.00
2022-08-27T21:24:01.964Z,22.90
2022-08-27T21:28:05.822Z,22.80
2022-08-27T21:32:08.679Z,22.80
2022-08-27T21:36:12.187Z,22.80
2022-08-27T21:40:13.358Z,22.80
2022-08-27T21:44:14.824Z,22.90
2022-08-27T21:48:16.174Z,22.90
2022-08-27T21:52:17.637Z,23.10
2022-08-27T21:56:18.846Z,23.10
2022-08-27T22:00:32.206Z,23.20
2022-08-27T22:04:34.000Z,23.20
2022-08-27T22:08:35.231Z,23.10
2022-08-27T22:12:36.372Z,23.30
2022-08-27T22:16:37.871Z,23.10
2022-08-27T22:20:39.681Z,23.20
2022-08-27T22:24:40.851Z,23.20
2022-08-27T22:28:42.270Z,23.10
2022-08-27T22:32:43.783Z,22.80
2022-08-27T22:36:44.987Z,22.40
2022-08-27T22:40:49.027Z,22.50
2022-08-27T22:44:50.850Z,22.40
2022-08-27T22:48:52.066Z,22.30
2022-08-27T22:52:53.382Z,22.10
2022-08-27T22:56:54.511Z,22.10
2022-08-27T23:00:56.131Z,22.20
2022-08-27T23:04:57.318Z,22.20
2022-08-27T23:09:00.279Z,22.10
2022-08-27T23:13:02.417Z,22.10
2022-08-27T23:17:03.669Z,22.20
2022-08-27T23:21:05.357Z,22.10
2022-08-27T23:25:27.296Z,22.10
2022-08-27T23:29:28.628Z,22.00
2022-08-27T23:33:29.834Z,21.80
2022-08-27T23:37:31.369Z,21.90
2022-08-27T23:41:32.700Z,21.80
2022-08-27T23:45:39.725Z,21.80
2022-08-27T23:49:38.412Z,21.70
2022-08-27T23:53:39.675Z,21.60
2022-08-27T23:57:41.112Z,21.50
